createdAt,value
2018-03-30T06:01:27.846Z,11.67
2018-03-30T06:03:56.193Z,11.67
2018-03-30T06:06:24.820Z,10.50
2018-03-30T06:08:52.962Z,11.87
2018-03-30T06:11:20.518Z,12.03
2018-03-30T06:13:48.093Z,11.60
2018-03-30T06:16:15.660Z,11.47
2018-03-30T06:18:43.246Z,11.33
2018-03-30T06:21:10.821Z,11.17
2018-03-30T06:23:39.149Z,10.53
2018-03-30T06:26:07.360Z,10.60
2018-03-30T06:28:35.704Z,10.87
2018-03-30T06:31:03.282Z,10.47
2018-03-30T06:33:30.843Z,10.00
2018-03-30T06:35:58.442Z,10.03
2018-03-30T06:38:26.026Z,9.03
2018-03-30T06:40:53.613Z,9.97
2018-03-30T06:43:21.169Z,9.50
2018-03-30T06:45:48.760Z,9.93
2018-03-30T06:48:16.327Z,10.30
2018-03-30T06:50:44.641Z,10.13
2018-03-30T06:53:12.213Z,10.17
2018-03-30T06:55:39.759Z,10.23
2018-03-30T06:58:08.209Z,10.10
2018-03-30T07:00:35.741Z,11.03
2018-03-30T07:03:04.016Z,10.40
2018-03-30T07:05:31.637Z,10.93
2018-03-30T07:08:00.112Z,10.90
2018-03-30T07:10:27.679Z,12.07
2018-03-30T07:12:55.308Z,10.13
2018-03-30T07:15:23.646Z,10.30
2018-03-30T07:17:51.225Z,10.47
2018-03-30T07:20:18.802Z,10.33
2018-03-30T07:22:47.115Z,10.67
2018-03-30T07:25:17.006Z,10.50
2018-03-30T07:27:45.677Z,10.40
2018-03-30T07:30:14.093Z,10.37
2018-03-30T07:32:43.321Z,10.03
2018-03-30T07:35:12.816Z,9.60
2018-03-30T07:37:40.429Z,9.63
2018-03-30T07:40:08.852Z,10.07
2018-03-30T07:42:38.304Z,9.33
2018-03-30T07:45:06.147Z,8.97
2018-03-30T07:47:34.630Z,8.33
2018-03-30T07:50:02.332Z,9.23
2018-03-30T07:52:30.938Z,8.13
2018-03-30T07:54:58.598Z,8.40
2018-03-30T07:57:26.187Z,8.50
2018-03-30T07:59:57.388Z,8.93
2018-03-30T08:02:27.133Z,8.40
2018-03-30T08:04:57.507Z,7.57
2018-03-30T08:07:25.968Z,7.00
2018-03-30T08:09:53.889Z,6.83
2018-03-30T08:12:26.747Z,6.63
2018-03-30T08:14:57.715Z,6.43
2018-03-30T08:17:25.357Z,6.57
2018-03-30T08:19:53.765Z,6.47
2018-03-30T08:22:21.964Z,6.03
2018-03-30T08:24:50.403Z,11.63
2018-03-30T08:27:18.017Z,6.30
2018-03-30T08:29:51.657Z,6.87
2018-03-30T08:32:20.138Z,5.77
2018-03-30T08:34:47.896Z,5.90
2018-03-30T08:37:16.371Z,6.00
2018-03-30T08:39:45.894Z,6.33
2018-03-30T08:42:15.050Z,5.27
2018-03-30T08:44:46.769Z,6.37
2018-03-30T08:47:14.342Z,5.87
2018-03-30T08:49:42.945Z,5.33
2018-03-30T08:52:12.025Z,5.57
2018-03-30T08:54:41.180Z,5.37
2018-03-30T08:57:09.228Z,5.20
2018-03-30T08:59:36.808Z,5.10
2018-03-30T09:02:08.166Z,5.30
2018-03-30T09:04:36.038Z,4.87
2018-03-30T09:07:04.593Z,4.97
2018-03-30T09:09:32.944Z,4.80
2018-03-30T09:12:00.519Z,4.40
2018-03-30T09:14:29.082Z,5.10
2018-03-30T09:16:56.654Z,4.83
2018-03-30T09:19:25.725Z,4.60
2018-03-30T09:21:53.407Z,4.53
2018-03-30T09:24:21.615Z,4.60
2018-03-30T09:26:50.334Z,4.87
2018-03-30T09:29:17.947Z,4.20
2018-03-30T09:31:45.541Z,4.37
2018-03-30T09:34:13.723Z,4.27
2018-03-30T09:36:42.089Z,4.43
2018-03-30T09:39:11.864Z,4.70
2018-03-30T09:41:40.068Z,4.33
2018-03-30T09:44:09.713Z,4.70
2018-03-30T09:46:37.279Z,4.27
2018-03-30T09:49:04.889Z,4.47
2018-03-30T09:51:33.682Z,3.97
2018-03-30T09:54:01.263Z,3.90
2018-03-30T09:56:31.231Z,4.20
2018-03-30T09:58:59.567Z,5.20
2018-03-30T10:01:27.877Z,4.80
2018-03-30T10:03:55.488Z,4.80
2018-03-30T10:06:25.316Z,4.43
2018-03-30T10:08:55.193Z,4.30
2018-03-30T10:11:23.192Z,4.80
2018-03-30T10:13:50.813Z,4.10
2018-03-30T10:16:19.304Z,3.60
2018-03-30T10:18:47.614Z,3.10
2018-03-30T10:21:16.220Z,3.10
2018-03-30T10:23:43.775Z,3.30
2018-03-30T10:26:11.336Z,3.40
2018-03-30T10:28:39.590Z,2.93
2018-03-30T10:31:08.785Z,2.50
2018-03-30T10:33:36.466Z,2.90
2018-03-30T10:36:05.146Z,2.50
2018-03-30T10:38:34.414Z,1.97
2018-03-30T10:41:02.132Z,1.70
2018-03-30T10:43:31.683Z,2.40
2018-03-30T10:45:59.289Z,1.80
2018-03-30T10:48:28.189Z,1.77
2018-03-30T10:50:55.851Z,1.80
2018-03-30T10:53:24.258Z,1.17
2018-03-30T10:55:52.665Z,2.00
2018-03-30T10:58:20.210Z,1.53
2018-03-30T11:00:47.799Z,1.50
2018-03-30T11:03:15.561Z,1.47
2018-03-30T11:05:43.201Z,1.27
2018-03-30T11:08:11.616Z,1.20
2018-03-30T11:10:42.472Z,1.40
2018-03-30T11:13:10.045Z,1.70
2018-03-30T11:15:38.328Z,1.20
